createdAt,value
2019-03-11T00:01:11.439Z,2.60
2019-03-11T00:03:42.192Z,2.60
2019-03-11T00:06:12.030Z,2.60
2019-03-11T00:08:39.656Z,2.60
2019-03-11T00:11:07.377Z,2.50
2019-03-11T00:13:34.987Z,2.50
2019-03-11T00:16:02.653Z,2.60
2019-03-11T00:18:30.436Z,2.50
2019-03-11T00:21:01.105Z,2.50
2019-03-11T00:23:28.760Z,2.40
2019-03-11T00:25:56.597Z,2.50
2019-03-11T00:28:24.186Z,2.50
2019-03-11T00:30:54.571Z,2.50
2019-03-11T00:33:22.287Z,2.40
2019-03-11T00:35:49.881Z,2.50
2019-03-11T00:38:20.471Z,2.50
2019-03-11T00:40:48.254Z,2.50
2019-03-11T00:43:15.898Z,2.40
2019-03-11T00:45:43.521Z,2.30
2019-03-11T00:48:11.410Z,2.30
2019-03-11T00:50:38.998Z,2.20
2019-03-11T00:53:06.569Z,2.20
2019-03-11T00:55:34.266Z,2.20
2019-03-11T00:58:01.873Z,2.20
2019-03-11T01:00:31.655Z,2.20
2019-03-11T01:02:59.376Z,2.10
2019-03-11T01:05:26.965Z,2.00
2019-03-11T01:07:54.560Z,2.10
2019-03-11T01:10:22.287Z,2.00
2019-03-11T01:12:49.898Z,1.90
2019-03-11T01:15:17.455Z,1.90
2019-03-11T01:17:45.444Z,2.00
2019-03-11T01:20:13.156Z,2.00
2019-03-11T01:22:40.738Z,1.90
2019-03-11T01:25:09.183Z,1.90
2019-03-11T01:27:36.777Z,1.90
2019-03-11T01:30:04.866Z,2.00
2019-03-11T01:32:32.600Z,2.00
2019-03-11T01:35:00.351Z,2.00
2019-03-11T01:37:27.953Z,2.10
2019-03-11T01:39:55.922Z,2.10
2019-03-11T01:42:23.572Z,2.20
2019-03-11T01:44:51.070Z,2.30
2019-03-11T01:47:18.964Z,2.40
2019-03-11T01:49:46.584Z,2.50
2019-03-11T01:52:14.217Z,2.50
2019-03-11T01:54:41.993Z,2.50
2019-03-11T01:57:09.772Z,2.60
2019-03-11T01:59:37.360Z,2.60
2019-03-11T02:02:06.122Z,2.80
2019-03-11T02:04:33.783Z,2.70
2019-03-11T02:07:01.634Z,2.70
2019-03-11T02:09:29.255Z,2.90
2019-03-11T02:11:56.978Z,2.80
2019-03-11T02:14:24.817Z,2.90
2019-03-11T02:16:52.678Z,2.80
2019-03-11T02:19:20.278Z,2.80
2019-03-11T02:21:50.667Z,2.90
2019-03-11T02:24:18.289Z,2.90
2019-03-11T02:26:45.907Z,2.90
2019-03-11T02:29:13.652Z,3.00
2019-03-11T02:31:41.324Z,3.10
2019-03-11T02:34:10.192Z,3.10
2019-03-11T02:36:37.661Z,3.10
2019-03-11T02:39:06.942Z,3.10
2019-03-11T02:41:34.792Z,3.10
2019-03-11T02:44:02.413Z,3.10
2019-03-11T02:46:30.360Z,3.00
2019-03-11T02:48:57.937Z,3.00
2019-03-11T02:51:26.664Z,2.90
2019-03-11T02:53:54.411Z,2.50
2019-03-11T02:56:22.231Z,2.30
2019-03-11T02:58:50.307Z,2.10
2019-03-11T03:01:46.829Z,2.00
2019-03-11T03:04:19.051Z,1.90
2019-03-11T03:06:46.693Z,1.90
2019-03-11T03:09:14.453Z,1.60
2019-03-11T03:11:42.055Z,1.60
2019-03-11T03:14:09.840Z,1.50
2019-03-11T03:16:37.483Z,1.40
2019-03-11T03:19:05.481Z,1.10
2019-03-11T03:21:34.199Z,1.10
2019-03-11T03:24:02.413Z,1.00
2019-03-11T03:26:30.027Z,1.10
2019-03-11T03:28:57.665Z,1.00
2019-03-11T03:31:25.393Z,0.90
2019-03-11T03:33:53.061Z,0.80
2019-03-11T03:36:20.600Z,0.80
2019-03-11T03:38:48.322Z,0.70
2019-03-11T03:41:16.034Z,0.70
2019-03-11T03:43:43.650Z,0.50
2019-03-11T03:46:19.346Z,0.50
2019-03-11T03:48:42.833Z,0.40
2019-03-11T03:51:10.808Z,0.50
2019-03-11T03:53:38.518Z,0.50
2019-03-11T03:56:06.189Z,0.50
2019-03-11T03:58:33.789Z,0.60
2019-03-11T04:01:01.482Z,0.60
2019-03-11T04:03:29.207Z,0.60
2019-03-11T04:05:58.711Z,0.70
2019-03-11T04:08:27.091Z,0.80
2019-03-11T04:10:54.941Z,0.80
2019-03-11T04:13:22.554Z,0.90
2019-03-11T04:15:50.561Z,1.00
2019-03-11T04:18:18.664Z,1.10
2019-03-11T04:20:46.430Z,1.10
2019-03-11T04:23:14.591Z,1.20
2019-03-11T04:25:42.396Z,1.30
2019-03-11T04:28:10.057Z,1.20
2019-03-11T04:30:37.834Z,1.30
2019-03-11T04:33:05.492Z,1.40
2019-03-11T04:35:33.344Z,1.40
2019-03-11T04:38:01.780Z,1.50
2019-03-11T04:40:29.378Z,1.50
2019-03-11T04:42:59.251Z,1.50
2019-03-11T04:45:26.933Z,1.50
2019-03-11T04:47:54.542Z,1.50
2019-03-11T04:50:22.114Z,1.50
2019-03-11T04:52:49.802Z,1.50
2019-03-11T04:55:17.655Z,1.50
2019-03-11T04:57:50.883Z,1.50
2019-03-11T05:00:23.147Z,1.50
2019-03-11T05:02:50.874Z,1.60
2019-03-11T05:05:18.546Z,1.50
2019-03-11T05:07:49.134Z,1.50
2019-03-11T05:10:18.754Z,1.50
2019-03-11T05:12:46.422Z,1.50
2019-03-11T05:15:14.481Z,1.40
2019-03-11T05:17:42.292Z,1.40
2019-03-11T05:20:10.421Z,1.40
2019-03-11T05:22:38.351Z,1.40
2019-03-11T05:25:06.278Z,1.50
2019-03-11T05:27:34.463Z,1.50
2019-03-11T05:30:06.485Z,1.50
2019-03-11T05:32:34.201Z,1.50
2019-03-11T05:35:01.954Z,1.50
2019-03-11T05:37:32.706Z,1.50
2019-03-11T05:40:01.739Z,1.50
2019-03-11T05:42:30.446Z,1.50
2019-03-11T05:44:58.461Z,1.50
2019-03-11T05:47:26.131Z,1.50
2019-03-11T05:49:56.505Z,1.40
2019-03-11T05:52:24.447Z,1.40
2019-03-11T05:54:54.868Z,1.30
2019-03-11T05:57:22.607Z,1.30
2019-03-11T05:59:50.582Z,1.30
2019-03-11T06:02:18.311Z,1.20
2019-03-11T06:04:45.993Z,1.20
2019-03-11T06:07:16.361Z,1.30
2019-03-11T06:09:44.068Z,1.30
2019-03-11T06:12:12.080Z,1.30
2019-03-11T06:14:41.490Z,1.30
2019-03-11T06:17:09.378Z,1.30
2019-03-11T06:19:36.992Z,1.30
2019-03-11T06:22:10.977Z,1.30
2019-03-11T06:24:38.586Z,1.20
2019-03-11T06:27:06.191Z,1.30
2019-03-11T06:29:33.999Z,1.30
2019-03-11T06:32:01.585Z,1.30
2019-03-11T06:34:29.316Z,1.30
2019-03-11T06:36:56.994Z,1.30
2019-03-11T06:39:24.668Z,1.40
2019-03-11T06:41:52.322Z,1.50
2019-03-11T06:44:19.985Z,1.50
2019-03-11T06:46:47.829Z,1.50
2019-03-11T06:49:18.055Z,1.60
2019-03-11T06:51:45.856Z,1.60
2019-03-11T06:54:13.510Z,1.60
2019-03-11T06:56:46.233Z,1.60
2019-03-11T06:59:17.083Z,1.50
2019-03-11T07:01:45.062Z,1.50
2019-03-11T07:04:12.720Z,1.60
2019-03-11T07:06:40.739Z,1.70
2019-03-11T07:09:11.269Z,1.60
2019-03-11T07:11:38.875Z,1.60
2019-03-11T07:14:08.105Z,1.60
2019-03-11T07:16:48.709Z,1.70
2019-03-11T07:19:16.462Z,1.50
2019-03-11T07:21:47.050Z,1.60
2019-03-11T07:24:14.687Z,1.70
2019-03-11T07:26:42.362Z,1.70
2019-03-11T07:29:09.972Z,1.70
2019-03-11T07:31:37.662Z,1.80
2019-03-11T07:34:06.546Z,1.70
2019-03-11T07:36:34.314Z,1.70
2019-03-11T07:39:04.297Z,1.80
2019-03-11T07:41:32.078Z,1.70
2019-03-11T07:43:59.736Z,1.70
2019-03-11T07:46:30.509Z,1.50
2019-03-11T07:48:58.311Z,1.70
2019-03-11T07:51:26.207Z,1.70
2019-03-11T07:53:57.126Z,1.80
2019-03-11T07:56:25.102Z,1.70
2019-03-11T07:58:52.868Z,1.90
2019-03-11T08:01:20.575Z,1.70
2019-03-11T08:03:48.733Z,1.60
2019-03-11T08:06:18.937Z,1.50
2019-03-11T08:08:45.879Z,1.70
2019-03-11T08:11:13.636Z,1.60
2019-03-11T08:13:45.029Z,2.00
2019-03-11T08:16:15.157Z,2.40
2019-03-11T08:18:45.265Z,2.40
2019-03-11T08:21:14.929Z,3.20
2019-03-11T08:23:42.697Z,3.50
2019-03-11T08:26:10.949Z,3.10
2019-03-11T08:28:38.681Z,3.00
2019-03-11T08:31:06.278Z,3.30
2019-03-11T08:33:36.771Z,3.00
2019-03-11T08:36:04.695Z,2.80
2019-03-11T08:38:32.275Z,2.90
2019-03-11T08:41:05.606Z,3.10
2019-03-11T08:43:36.268Z,3.50
2019-03-11T08:46:05.484Z,4.00
2019-03-11T08:48:34.010Z,3.60
2019-03-11T08:51:03.878Z,3.20
2019-03-11T08:53:34.643Z,2.90
2019-03-11T08:56:02.342Z,2.80
2019-03-11T08:58:30.226Z,2.90
2019-03-11T09:00:57.828Z,2.90
2019-03-11T09:03:37.188Z,2.60
2019-03-11T09:06:18.376Z,2.60
2019-03-11T09:08:46.506Z,2.60
2019-03-11T09:11:14.147Z,2.60
2019-03-11T09:13:41.818Z,2.90
2019-03-11T09:16:09.499Z,3.10
2019-03-11T09:18:37.124Z,2.90
2019-03-11T09:21:12.335Z,2.90
2019-03-11T09:23:39.975Z,2.70
2019-03-11T09:26:07.798Z,2.80
2019-03-11T09:28:36.503Z,2.70
2019-03-11T09:31:13.578Z,2.30
2019-03-11T09:33:45.396Z,2.10
2019-03-11T09:36:16.083Z,2.10
2019-03-11T09:38:43.686Z,2.10
2019-03-11T09:41:11.437Z,2.30
2019-03-11T09:43:42.230Z,2.50
2019-03-11T09:46:11.124Z,2.80
2019-03-11T09:48:38.787Z,3.00
2019-03-11T09:51:10.138Z,2.90
2019-03-11T09:53:38.222Z,3.10
2019-03-11T09:56:09.679Z,3.10
2019-03-11T09:58:37.668Z,3.20
2019-03-11T10:01:05.496Z,3.00
2019-03-11T10:03:33.460Z,3.20
2019-03-11T10:06:02.446Z,2.90
2019-03-11T10:08:30.563Z,3.00
2019-03-11T10:11:01.970Z,3.00
2019-03-11T10:13:30.102Z,3.00
2019-03-11T10:15:57.940Z,3.00
2019-03-11T10:18:25.829Z,3.20
2019-03-11T10:20:53.442Z,3.10
2019-03-11T10:23:31.765Z,3.10
2019-03-11T10:25:50.998Z,2.90
2019-03-11T10:28:19.349Z,2.90
2019-03-11T10:30:47.019Z,3.10
2019-03-11T10:33:15.063Z,3.20
2019-03-11T10:35:42.736Z,3.20
2019-03-11T10:38:10.397Z,3.20
2019-03-11T10:40:38.159Z,3.20
2019-03-11T10:43:05.956Z,3.30
2019-03-11T10:45:33.655Z,3.30
2019-03-11T10:48:04.277Z,3.40
2019-03-11T10:50:34.613Z,3.40
2019-03-11T10:53:02.311Z,3.60
2019-03-11T10:55:29.978Z,3.50
2019-03-11T10:57:57.606Z,3.50
2019-03-11T11:00:26.222Z,3.60
2019-03-11T11:02:54.173Z,3.60
2019-03-11T11:05:22.922Z,3.50
2019-03-11T11:07:50.537Z,3.40
2019-03-11T11:10:21.723Z,3.50
2019-03-11T11:12:49.515Z,3.40
2019-03-11T11:15:23.604Z,3.20
2019-03-11T11:17:51.928Z,3.20
2019-03-11T11:20:24.163Z,3.10
2019-03-11T11:22:52.115Z,3.30
2019-03-11T11:25:27.045Z,3.30
2019-03-11T11:28:01.441Z,3.30
2019-03-11T11:30:35.441Z,3.40
2019-03-11T11:33:03.404Z,3.40
2019-03-11T11:35:31.275Z,3.40
2019-03-11T11:37:58.990Z,3.40
2019-03-11T11:40:26.800Z,3.50
2019-03-11T11:42:54.387Z,3.60
2019-03-11T11:45:22.162Z,3.80
2019-03-11T11:47:50.515Z,3.70
2019-03-11T11:50:19.208Z,4.00
2019-03-11T11:52:50.084Z,4.10
2019-03-11T11:55:18.242Z,4.10
2019-03-11T11:57:46.299Z,4.30
2019-03-11T12:00:23.424Z,4.20
2019-03-11T12:02:51.231Z,4.20
2019-03-11T12:05:24.116Z,4.20
2019-03-11T12:07:54.536Z,4.20
2019-03-11T12:10:22.637Z,4.20
2019-03-11T12:12:50.822Z,4.30
2019-03-11T12:15:18.643Z,4.30
2019-03-11T12:17:46.650Z,4.40
2019-03-11T12:20:21.379Z,4.50
2019-03-11T12:22:51.099Z,4.40
2019-03-11T12:25:46.398Z,4.60
2019-03-11T12:28:14.566Z,4.50
2019-03-11T12:30:42.419Z,4.70
2019-03-11T12:33:10.266Z,4.50
2019-03-11T12:35:40.210Z,4.50
2019-03-11T12:38:07.917Z,4.60
2019-03-11T12:40:35.484Z,4.50
2019-03-11T12:43:04.630Z,4.50
2019-03-11T12:45:32.290Z,4.60
2019-03-11T12:47:59.900Z,4.30
2019-03-11T12:50:27.629Z,4.20
2019-03-11T12:52:55.350Z,4.40
2019-03-11T12:55:29.956Z,4.40
2019-03-11T12:57:57.646Z,4.60
2019-03-11T13:00:25.766Z,4.50
2019-03-11T13:02:57.048Z,4.50
2019-03-11T13:05:54.154Z,4.50
2019-03-11T13:08:22.125Z,4.60
2019-03-11T13:10:52.756Z,4.80
2019-03-11T13:13:22.174Z,4.80
2019-03-11T13:15:50.007Z,4.80
2019-03-11T13:18:43.893Z,4.90
2019-03-11T13:21:15.298Z,4.80
2019-03-11T13:23:43.035Z,4.80
2019-03-11T13:26:18.295Z,4.90
2019-03-11T13:28:46.066Z,5.00
2019-03-11T13:31:14.063Z,5.10
2019-03-11T13:33:44.423Z,5.10
2019-03-11T13:36:12.899Z,4.90
2019-03-11T13:38:40.689Z,4.80
2019-03-11T13:41:11.110Z,4.80
2019-03-11T13:43:38.920Z,4.90
2019-03-11T13:46:06.712Z,4.90
2019-03-11T13:48:35.118Z,4.90
2019-03-11T13:51:04.751Z,5.00
2019-03-11T13:53:32.325Z,4.80
2019-03-11T13:56:02.899Z,4.90
2019-03-11T13:58:33.061Z,4.90
2019-03-11T14:01:00.440Z,4.80
2019-03-11T14:03:28.147Z,4.80
2019-03-11T14:05:56.717Z,4.90
2019-03-11T14:08:32.560Z,4.80
2019-03-11T14:11:04.644Z,4.70
2019-03-11T14:13:39.832Z,4.70
2019-03-11T14:16:09.430Z,4.80
2019-03-11T14:18:44.882Z,5.00
2019-03-11T14:21:12.791Z,4.90
2019-03-11T14:23:40.405Z,5.00
2019-03-11T14:26:11.394Z,4.80
2019-03-11T14:28:39.137Z,4.90
2019-03-11T14:31:07.661Z,4.70
2019-03-11T14:33:35.513Z,4.80
2019-03-11T14:36:03.428Z,4.80
2019-03-11T14:38:31.441Z,4.80
2019-03-11T14:40:59.809Z,4.80
2019-03-11T14:43:28.540Z,4.90
2019-03-11T14:45:56.367Z,5.00
2019-03-11T14:48:24.584Z,4.90
2019-03-11T14:50:55.247Z,5.00
2019-03-11T14:53:23.514Z,5.10
2019-03-11T14:55:53.461Z,5.20
2019-03-11T14:58:29.355Z,5.20
2019-03-11T15:00:53.139Z,5.20
2019-03-11T15:03:21.846Z,5.00
2019-03-11T15:05:49.481Z,5.10
2019-03-11T15:08:17.277Z,5.20
2019-03-11T15:10:45.849Z,5.30
2019-03-11T15:13:19.390Z,5.20
2019-03-11T15:15:47.139Z,5.10
2019-03-11T15:18:15.132Z,5.00
2019-03-11T15:20:42.733Z,5.10
2019-03-11T15:23:20.311Z,5.20
2019-03-11T15:25:43.163Z,5.20
2019-03-11T15:28:13.267Z,5.30
2019-03-11T15:30:41.098Z,5.30
2019-03-11T15:33:08.815Z,5.30
2019-03-11T15:35:36.669Z,5.30
2019-03-11T15:38:07.312Z,5.10
2019-03-11T15:40:39.209Z,5.20
2019-03-11T15:43:10.167Z,5.20
2019-03-11T15:45:39.250Z,5.30
2019-03-11T15:48:07.687Z,5.30
2019-03-11T15:50:38.665Z,5.30
2019-03-11T15:53:06.421Z,5.50
2019-03-11T15:55:36.233Z,5.50
2019-03-11T15:58:04.731Z,5.50
2019-03-11T16:00:40.183Z,5.50
2019-03-11T16:03:09.272Z,5.50
2019-03-11T16:05:42.862Z,5.50
2019-03-11T16:08:10.680Z,5.40
2019-03-11T16:10:38.718Z,5.30
2019-03-11T16:13:06.309Z,5.20
2019-03-11T16:15:47.643Z,5.20
2019-03-11T16:18:18.663Z,5.00
2019-03-11T16:20:46.634Z,4.90
2019-03-11T16:23:14.302Z,4.90
2019-03-11T16:25:42.534Z,4.80
2019-03-11T16:28:10.874Z,4.70
2019-03-11T16:30:40.073Z,4.50
2019-03-11T16:33:07.736Z,4.50
2019-03-11T16:35:35.771Z,4.50
2019-03-11T16:38:03.591Z,4.50
2019-03-11T16:40:35.252Z,4.60
2019-03-11T16:43:07.306Z,4.60
2019-03-11T16:45:39.650Z,4.50
2019-03-11T16:48:10.381Z,4.60
2019-03-11T16:50:38.143Z,4.60
2019-03-11T16:53:05.982Z,4.40
2019-03-11T16:55:39.310Z,4.40
2019-03-11T16:58:30.256Z,4.40
2019-03-11T17:01:08.818Z,4.30
2019-03-11T17:03:42.121Z,4.40
2019-03-11T17:06:09.813Z,4.50
2019-03-11T17:08:37.495Z,4.50
2019-03-11T17:11:07.768Z,4.40
2019-03-11T17:13:35.821Z,4.40
2019-03-11T17:16:03.552Z,4.50
2019-03-11T17:18:31.286Z,4.50
2019-03-11T17:20:58.973Z,4.60
2019-03-11T17:23:26.627Z,4.60
2019-03-11T17:25:59.841Z,4.60
2019-03-11T17:28:37.436Z,4.60
2019-03-11T17:31:08.884Z,4.60
2019-03-11T17:33:42.800Z,4.70
2019-03-11T17:36:10.706Z,4.70
2019-03-11T17:38:48.467Z,4.70
2019-03-11T17:41:19.370Z,4.70
2019-03-11T17:43:49.803Z,4.70
2019-03-11T17:46:17.528Z,4.70
2019-03-11T17:48:45.181Z,4.80
2019-03-11T17:51:15.426Z,4.80
2019-03-11T17:53:44.383Z,4.80
2019-03-11T17:56:14.847Z,4.80
2019-03-11T17:58:42.523Z,4.70
2019-03-11T18:01:10.628Z,4.80
2019-03-11T18:03:49.739Z,4.80
2019-03-11T18:06:18.170Z,4.80
2019-03-11T18:08:48.205Z,4.70
2019-03-11T18:11:18.237Z,4.70
2019-03-11T18:13:46.720Z,4.80
2019-03-11T18:16:14.423Z,4.70
2019-03-11T18:18:42.287Z,4.70
2019-03-11T18:21:10.532Z,4.60
2019-03-11T18:23:40.229Z,4.70
2019-03-11T18:26:12.959Z,4.60
2019-03-11T18:28:41.026Z,4.60
2019-03-11T18:31:09.011Z,4.60
2019-03-11T18:33:36.630Z,4.60
2019-03-11T18:36:13.550Z,4.50
2019-03-11T18:38:42.756Z,4.50
2019-03-11T18:41:22.215Z,4.50
2019-03-11T18:43:50.517Z,4.60
2019-03-11T18:46:18.296Z,4.50
2019-03-11T18:48:46.321Z,4.40
2019-03-11T18:51:14.484Z,4.30
2019-03-11T18:53:45.482Z,4.30
2019-03-11T18:56:15.671Z,4.30
2019-03-11T18:58:43.780Z,4.30
2019-03-11T19:01:11.420Z,4.30
2019-03-11T19:03:40.205Z,4.20
2019-03-11T19:06:12.853Z,4.10
2019-03-11T19:08:40.773Z,3.90
2019-03-11T19:11:08.463Z,3.90
2019-03-11T19:13:36.430Z,3.70
2019-03-11T19:16:04.112Z,3.50
2019-03-11T19:18:34.345Z,3.50
2019-03-11T19:21:03.825Z,3.50
2019-03-11T19:23:31.447Z,3.40
2019-03-11T19:25:59.108Z,3.40
2019-03-11T19:28:27.172Z,3.40
2019-03-11T19:30:57.434Z,3.40
2019-03-11T19:33:28.347Z,3.50
2019-03-11T19:35:58.675Z,3.60
2019-03-11T19:38:34.333Z,3.60
2019-03-11T19:41:02.141Z,3.60
2019-03-11T19:43:31.410Z,3.60
2019-03-11T19:46:01.320Z,3.60
2019-03-11T19:48:29.428Z,3.60
2019-03-11T19:51:00.249Z,3.50
2019-03-11T19:53:34.941Z,3.50
2019-03-11T19:56:00.806Z,3.50
2019-03-11T19:58:38.530Z,3.50
2019-03-11T20:01:06.346Z,3.50
2019-03-11T20:03:40.012Z,3.60
2019-03-11T20:06:08.953Z,3.40
2019-03-11T20:08:39.319Z,3.40
2019-03-11T20:11:09.464Z,3.40
2019-03-11T20:13:40.597Z,3.40
2019-03-11T20:16:13.483Z,3.40
2019-03-11T20:18:41.206Z,3.40
2019-03-11T20:21:12.718Z,3.50
2019-03-11T20:23:40.346Z,3.40
2019-03-11T20:26:08.465Z,3.40
2019-03-11T20:28:48.515Z,3.40
2019-03-11T20:31:21.059Z,3.40
2019-03-11T20:33:50.264Z,3.40
2019-03-11T20:36:27.530Z,3.20
2019-03-11T20:38:55.273Z,3.20
2019-03-11T20:41:25.229Z,3.20
2019-03-11T20:43:57.236Z,3.30
2019-03-11T20:46:26.112Z,3.30
2019-03-11T20:48:53.954Z,3.40
2019-03-11T20:51:21.628Z,3.40
2019-03-11T20:53:49.734Z,3.40
2019-03-11T20:56:17.490Z,3.40
2019-03-11T20:58:45.474Z,3.40
2019-03-11T21:01:16.882Z,3.40
2019-03-11T21:03:44.455Z,3.40
2019-03-11T21:06:14.850Z,3.50
2019-03-11T21:08:47.645Z,3.40
2019-03-11T21:11:21.625Z,3.40
2019-03-11T21:13:51.609Z,3.30
2019-03-11T21:16:19.463Z,3.30
2019-03-11T21:18:48.041Z,3.30
2019-03-11T21:21:15.756Z,3.30
2019-03-11T21:23:45.509Z,3.30
2019-03-11T21:26:13.330Z,3.30
2019-03-11T21:28:43.168Z,3.20
2019-03-11T21:31:20.812Z,3.20
2019-03-11T21:33:57.985Z,3.20
2019-03-11T21:36:24.416Z,3.10
2019-03-11T21:38:52.430Z,3.10
2019-03-11T21:41:20.780Z,3.10
2019-03-11T21:43:48.545Z,3.10
2019-03-11T21:46:17.772Z,3.10
2019-03-11T21:48:48.507Z,3.00
2019-03-11T21:51:16.385Z,3.00
2019-03-11T21:53:44.086Z,3.10
2019-03-11T21:56:12.226Z,3.10
2019-03-11T21:58:41.106Z,3.10
2019-03-11T22:01:09.113Z,3.10
2019-03-11T22:03:36.793Z,3.10
2019-03-11T22:06:04.432Z,3.10
2019-03-11T22:08:33.543Z,3.10
2019-03-11T22:11:08.803Z,3.10
2019-03-11T22:13:39.326Z,3.10
2019-03-11T22:16:13.375Z,3.10
2019-03-11T22:18:41.364Z,3.10
2019-03-11T22:21:10.382Z,3.10
2019-03-11T22:23:38.471Z,3.10
2019-03-11T22:26:17.847Z,3.20
2019-03-11T22:28:46.477Z,3.20
2019-03-11T22:31:21.495Z,3.20
2019-03-11T22:33:54.235Z,3.20
2019-03-11T22:36:24.753Z,3.20
2019-03-11T22:38:52.363Z,3.30
2019-03-11T22:41:20.426Z,3.20
2019-03-11T22:43:48.142Z,3.20
2019-03-11T22:46:15.745Z,3.20
2019-03-11T22:48:43.598Z,3.30
2019-03-11T22:51:17.282Z,3.40
2019-03-11T22:53:51.613Z,3.40
2019-03-11T22:56:22.348Z,3.50
2019-03-11T22:58:51.238Z,3.40
2019-03-11T23:01:19.789Z,3.40
2019-03-11T23:03:50.506Z,3.50
2019-03-11T23:06:17.184Z,3.50
2019-03-11T23:08:47.251Z,3.50
2019-03-11T23:11:17.801Z,3.50
2019-03-11T23:13:45.479Z,3.40
2019-03-11T23:16:15.811Z,3.40
2019-03-11T23:18:44.596Z,3.30
2019-03-11T23:21:14.686Z,3.30
2019-03-11T23:23:42.288Z,3.20
2019-03-11T23:26:10.003Z,3.30
2019-03-11T23:28:39.167Z,3.30
2019-03-11T23:31:09.559Z,3.20
2019-03-11T23:33:42.932Z,3.20
2019-03-11T23:36:10.602Z,3.20
2019-03-11T23:38:38.244Z,3.20
2019-03-11T23:41:06.242Z,3.10
2019-03-11T23:43:33.849Z,3.10
2019-03-11T23:46:04.387Z,3.20
2019-03-11T23:48:32.042Z,3.10
2019-03-11T23:51:00.578Z,3.10
2019-03-11T23:53:30.774Z,3.10
2019-03-11T23:55:58.479Z,3.00
2019-03-11T23:58:28.215Z,3.00
